sensor_id;sensor_type;location;lat;lon;timestamp;P1;durP1;ratioP1;P2;durP2;ratioP2
10497;SDS011;5296;51.060;13.750;2024-01-30T00:01:04;18.93;;;13.40;;
10497;SDS011;5296;51.060;13.750;2024-01-30T00:06:06;20.23;;;13.60;;
10497;SDS011;5296;51.060;13.750;2024-01-30T00:11:08;19.30;;;13.00;;
10497;SDS011;5296;51.060;13.750;2024-01-30T00:16:19;18.08;;;13.00;;
10497;SDS011;5296;51.060;13.750;2024-01-30T00:21:27;19.03;;;13.30;;
10497;SDS011;5296;51.060;13.750;2024-01-30T00:26:29;15.83;;;12.17;;
10497;SDS011;5296;51.060;13.750;2024-01-30T00:31:31;17.23;;;12.83;;
10497;SDS011;5296;51.060;13.750;2024-01-30T00:36:33;19.42;;;13.20;;
10497;SDS011;5296;51.060;13.750;2024-01-30T00:41:35;17.33;;;13.00;;
10497;SDS011;5296;51.060;13.750;2024-01-30T00:46:37;16.87;;;13.13;;
10497;SDS011;5296;51.060;13.750;2024-01-30T00:51:38;18.80;;;12.73;;
10497;SDS011;5296;51.060;13.750;2024-01-30T00:56:40;17.37;;;12.27;;
10497;SDS011;5296;51.060;13.750;2024-01-30T01:01:42;18.33;;;12.47;;
10497;SDS011;5296;51.060;13.750;2024-01-30T01:06:43;20.13;;;13.07;;
10497;SDS011;5296;51.060;13.750;2024-01-30T01:11:45;17.67;;;11.80;;
10497;SDS011;5296;51.060;13.750;2024-01-30T01:16:47;17.83;;;12.07;;
10497;SDS011;5296;51.060;13.750;2024-01-30T01:21:50;17.52;;;12.40;;
10497;SDS011;5296;51.060;13.750;2024-01-30T01:26:51;16.73;;;11.87;;
10497;SDS011;5296;51.060;13.750;2024-01-30T01:31:53;17.47;;;11.20;;
10497;SDS011;5296;51.060;13.750;2024-01-30T01:36:55;17.00;;;12.13;;
10497;SDS011;5296;51.060;13.750;2024-01-30T01:41:56;17.10;;;11.50;;
10497;SDS011;5296;51.060;13.750;2024-01-30T01:46:58;14.17;;;10.70;;
10497;SDS011;5296;51.060;13.750;2024-01-30T01:52:00;17.80;;;12.40;;
10497;SDS011;5296;51.060;13.750;2024-01-30T01:57:02;15.00;;;11.57;;
10497;SDS011;5296;51.060;13.750;2024-01-30T02:02:04;17.38;;;12.50;;
10497;SDS011;5296;51.060;13.750;2024-01-30T02:07:06;15.35;;;11.00;;
10497;SDS011;5296;51.060;13.750;2024-01-30T02:12:08;16.70;;;11.73;;
10497;SDS011;5296;51.060;13.750;2024-01-30T02:17:09;17.30;;;11.53;;
10497;SDS011;5296;51.060;13.750;2024-01-30T02:22:11;17.40;;;11.63;;
10497;SDS011;5296;51.060;13.750;2024-01-30T02:27:13;15.98;;;11.82;;
10497;SDS011;5296;51.060;13.750;2024-01-30T02:32:14;17.97;;;11.97;;
10497;SDS011;5296;51.060;13.750;2024-01-30T02:37:16;16.67;;;13.10;;
10497;SDS011;5296;51.060;13.750;2024-01-30T02:42:18;15.82;;;12.20;;
10497;SDS011;5296;51.060;13.750;2024-01-30T02:47:20;15.77;;;11.50;;
10497;SDS011;5296;51.060;13.750;2024-01-30T02:52:22;18.40;;;12.43;;
10497;SDS011;5296;51.060;13.750;2024-01-30T02:57:23;16.47;;;11.50;;
10497;SDS011;5296;51.060;13.750;2024-01-30T03:02:25;20.13;;;11.98;;
10497;SDS011;5296;51.060;13.750;2024-01-30T03:07:27;18.27;;;12.13;;
10497;SDS011;5296;51.060;13.750;2024-01-30T03:12:28;18.03;;;12.23;;
10497;SDS011;5296;51.060;13.750;2024-01-30T03:17:30;16.70;;;12.37;;
10497;SDS011;5296;51.060;13.750;2024-01-30T03:22:32;19.10;;;12.50;;
10497;SDS011;5296;51.060;13.750;2024-01-30T03:27:33;17.13;;;12.47;;
10497;SDS011;5296;51.060;13.750;2024-01-30T03:32:35;17.93;;;12.80;;
10497;SDS011;5296;51.060;13.750;2024-01-30T03:37:37;19.58;;;13.05;;
10497;SDS011;5296;51.060;13.750;2024-01-30T03:42:38;17.57;;;11.97;;
10497;SDS011;5296;51.060;13.750;2024-01-30T03:47:42;17.63;;;12.20;;
10497;SDS011;5296;51.060;13.750;2024-01-30T03:52:44;18.40;;;12.47;;
10497;SDS011;5296;51.060;13.750;2024-01-30T03:57:46;16.43;;;12.50;;
10497;SDS011;5296;51.060;13.750;2024-01-30T04:02:48;15.70;;;12.13;;
10497;SDS011;5296;51.060;13.750;2024-01-30T04:07:49;19.63;;;12.67;;
10497;SDS011;5296;51.060;13.750;2024-01-30T04:12:51;19.40;;;13.27;;
10497;SDS011;5296;51.060;13.750;2024-01-30T04:17:53;17.98;;;12.13;;
10497;SDS011;5296;51.060;13.750;2024-01-30T04:22:55;16.87;;;11.90;;
10497;SDS011;5296;51.060;13.750;2024-01-30T04:27:57;17.83;;;11.73;;
10497;SDS011;5296;51.060;13.750;2024-01-30T04:32:58;17.43;;;12.40;;
10497;SDS011;5296;51.060;13.750;2024-01-30T04:38:00;16.87;;;12.10;;
10497;SDS011;5296;51.060;13.750;2024-01-30T04:43:02;16.50;;;12.23;;
10497;SDS011;5296;51.060;13.750;2024-01-30T04:48:04;16.70;;;12.37;;
10497;SDS011;5296;51.060;13.750;2024-01-30T04:53:05;17.97;;;12.17;;
10497;SDS011;5296;51.060;13.750;2024-01-30T04:58:07;15.67;;;11.67;;
10497;SDS011;5296;51.060;13.750;2024-01-30T05:03:09;17.53;;;11.30;;
10497;SDS011;5296;51.060;13.750;2024-01-30T05:08:11;15.57;;;12.07;;
10497;SDS011;5296;51.060;13.750;2024-01-30T05:13:12;17.50;;;12.30;;
10497;SDS011;5296;51.060;13.750;2024-01-30T05:18:15;17.13;;;12.80;;
10497;SDS011;5296;51.060;13.750;2024-01-30T05:23:17;17.17;;;12.50;;
10497;SDS011;5296;51.060;13.750;2024-01-30T05:28:18;15.63;;;11.30;;
10497;SDS011;5296;51.060;13.750;2024-01-30T05:33:20;17.87;;;12.07;;
10497;SDS011;5296;51.060;13.750;2024-01-30T05:38:22;19.97;;;12.00;;
10497;SDS011;5296;51.060;13.750;2024-01-30T05:43:24;17.53;;;11.87;;
10497;SDS011;5296;51.060;13.750;2024-01-30T05:48:26;19.37;;;12.20;;
10497;SDS011;5296;51.060;13.750;2024-01-30T05:53:27;18.90;;;11.97;;
10497;SDS011;5296;51.060;13.750;2024-01-30T05:58:29;17.10;;;12.20;;
10497;SDS011;5296;51.060;13.750;2024-01-30T06:03:32;21.30;;;12.97;;
10497;SDS011;5296;51.060;13.750;2024-01-30T06:08:34;16.70;;;12.47;;
10497;SDS011;5296;51.060;13.750;2024-01-30T06:13:35;16.30;;;11.80;;
10497;SDS011;5296;51.060;13.750;2024-01-30T06:18:37;16.87;;;12.07;;
10497;SDS011;5296;51.060;13.750;2024-01-30T06:23:39;17.00;;;11.77;;
10497;SDS011;5296;51.060;13.750;2024-01-30T06:28:40;16.60;;;11.80;;
10497;SDS011;5296;51.060;13.750;2024-01-30T06:33:42;16.47;;;11.33;;
10497;SDS011;5296;51.060;13.750;2024-01-30T06:38:44;17.97;;;12.53;;
10497;SDS011;5296;51.060;13.750;2024-01-30T06:43:45;16.03;;;11.97;;
10497;SDS011;5296;51.060;13.750;2024-01-30T06:48:47;16.27;;;11.93;;
10497;SDS011;5296;51.060;13.750;2024-01-30T06:53:49;15.90;;;11.87;;
10497;SDS011;5296;51.060;13.750;2024-01-30T06:58:50;18.23;;;12.30;;
10497;SDS011;5296;51.060;13.750;2024-01-30T07:03:53;17.57;;;11.73;;
10497;SDS011;5296;51.060;13.750;2024-01-30T07:08:54;15.50;;;11.37;;
10497;SDS011;5296;51.060;13.750;2024-01-30T07:13:56;15.63;;;12.30;;
10497;SDS011;5296;51.060;13.750;2024-01-30T07:18:58;16.97;;;11.50;;
10497;SDS011;5296;51.060;13.750;2024-01-30T07:24:00;16.93;;;11.77;;
10497;SDS011;5296;51.060;13.750;2024-01-30T07:29:01;17.43;;;11.70;;
10497;SDS011;5296;51.060;13.750;2024-01-30T07:34:03;18.40;;;12.03;;
10497;SDS011;5296;51.060;13.750;2024-01-30T07:39:05;17.83;;;11.90;;
10497;SDS011;5296;51.060;13.750;2024-01-30T07:44:07;14.83;;;10.87;;
10497;SDS011;5296;51.060;13.750;2024-01-30T07:49:08;17.20;;;11.87;;
10497;SDS011;5296;51.060;13.750;2024-01-30T07:54:11;17.50;;;11.70;;
10497;SDS011;5296;51.060;13.750;2024-01-30T07:59:13;15.53;;;11.37;;
10497;SDS011;5296;51.060;13.750;2024-01-30T08:04:15;14.00;;;11.33;;
10497;SDS011;5296;51.060;13.750;2024-01-30T08:09:16;16.93;;;12.20;;
10497;SDS011;5296;51.060;13.750;2024-01-30T08:14:18;15.63;;;10.93;;
10497;SDS011;5296;51.060;13.750;2024-01-30T08:19:20;16.23;;;11.67;;
10497;SDS011;5296;51.060;13.750;2024-01-30T08:24:21;17.30;;;12.00;;
10497;SDS011;5296;51.060;13.750;2024-01-30T08:29:23;16.43;;;10.73;;
10497;SDS011;5296;51.060;13.750;2024-01-30T08:34:26;14.40;;;10.63;;
10497;SDS011;5296;51.060;13.750;2024-01-30T08:39:27;15.67;;;10.77;;
10497;SDS011;5296;51.060;13.750;2024-01-30T08:44:29;16.40;;;10.37;;
10497;SDS011;5296;51.060;13.750;2024-01-30T08:49:31;15.80;;;11.83;;
10497;SDS011;5296;51.060;13.750;2024-01-30T08:54:33;14.70;;;10.50;;
10497;SDS011;5296;51.060;13.750;2024-01-30T08:59:36;15.07;;;11.03;;
10497;SDS011;5296;51.060;13.750;2024-01-30T09:04:38;13.90;;;10.77;;
10497;SDS011;5296;51.060;13.750;2024-01-30T09:09:40;13.87;;;10.80;;
10497;SDS011;5296;51.060;13.750;2024-01-30T09:14:42;16.27;;;11.17;;
10497;SDS011;5296;51.060;13.750;2024-01-30T09:19:45;17.63;;;12.02;;
10497;SDS011;5296;51.060;13.750;2024-01-30T09:24:47;16.87;;;11.50;;
10497;SDS011;5296;51.060;13.750;2024-01-30T09:29:49;16.83;;;11.80;;
10497;SDS011;5296;51.060;13.750;2024-01-30T09:34:51;13.90;;;10.87;;
10497;SDS011;5296;51.060;13.750;2024-01-30T09:39:53;14.32;;;11.18;;
10497;SDS011;5296;51.060;13.750;2024-01-30T09:44:54;14.73;;;10.63;;
10497;SDS011;5296;51.060;13.750;2024-01-30T09:49:57;15.38;;;12.10;;
10497;SDS011;5296;51.060;13.750;2024-01-30T09:55:00;16.70;;;11.53;;
10497;SDS011;5296;51.060;13.750;2024-01-30T10:00:03;14.93;;;11.90;;
10497;SDS011;5296;51.060;13.750;2024-01-30T10:05:13;14.13;;;10.70;;
10497;SDS011;5296;51.060;13.750;2024-01-30T10:10:16;13.82;;;10.82;;
10497;SDS011;5296;51.060;13.750;2024-01-30T10:15:19;18.58;;;11.52;;
10497;SDS011;5296;51.060;13.750;2024-01-30T10:20:21;16.27;;;10.98;;
10497;SDS011;5296;51.060;13.750;2024-01-30T10:25:25;15.50;;;10.20;;
10497;SDS011;5296;51.060;13.750;2024-01-30T10:30:27;15.77;;;10.30;;
10497;SDS011;5296;51.060;13.750;2024-01-30T10:35:29;14.50;;;10.13;;
10497;SDS011;5296;51.060;13.750;2024-01-30T10:40:31;13.93;;;10.27;;
10497;SDS011;5296;51.060;13.750;2024-01-30T10:45:34;13.77;;;10.07;;
10497;SDS011;5296;51.060;13.750;2024-01-30T10:50:37;12.35;;;9.02;;
10497;SDS011;5296;51.060;13.750;2024-01-30T10:55:51;14.88;;;10.13;;
10497;SDS011;5296;51.060;13.750;2024-01-30T11:00:54;12.57;;;9.68;;
10497;SDS011;5296;51.060;13.750;2024-01-30T11:05:58;16.52;;;10.45;;
10497;SDS011;5296;51.060;13.750;2024-01-30T11:11:01;16.15;;;10.23;;
10497;SDS011;5296;51.060;13.750;2024-01-30T11:16:06;13.85;;;10.15;;
10497;SDS011;5296;51.060;13.750;2024-01-30T11:21:08;14.77;;;10.20;;
10497;SDS011;5296;51.060;13.750;2024-01-30T11:26:12;15.25;;;11.15;;
10497;SDS011;5296;51.060;13.750;2024-01-30T11:31:14;14.68;;;10.02;;
10497;SDS011;5296;51.060;13.750;2024-01-30T11:36:21;13.48;;;10.10;;
10497;SDS011;5296;51.060;13.750;2024-01-30T11:41:27;15.00;;;9.93;;
10497;SDS011;5296;51.060;13.750;2024-01-30T11:46:29;16.50;;;10.85;;
10497;SDS011;5296;51.060;13.750;2024-01-30T11:51:31;16.27;;;10.43;;
10497;SDS011;5296;51.060;13.750;2024-01-30T11:56:33;16.45;;;10.65;;
10497;SDS011;5296;51.060;13.750;2024-01-30T12:01:34;18.65;;;11.90;;
10497;SDS011;5296;51.060;13.750;2024-01-30T12:06:36;17.90;;;12.38;;
10497;SDS011;5296;51.060;13.750;2024-01-30T12:11:45;16.52;;;11.57;;
10497;SDS011;5296;51.060;13.750;2024-01-30T12:16:49;15.15;;;11.18;;
10497;SDS011;5296;51.060;13.750;2024-01-30T12:21:54;16.63;;;11.52;;
10497;SDS011;5296;51.060;13.750;2024-01-30T12:26:57;15.55;;;12.10;;
10497;SDS011;5296;51.060;13.750;2024-01-30T12:32:00;15.32;;;11.77;;
10497;SDS011;5296;51.060;13.750;2024-01-30T12:37:01;16.33;;;11.95;;
10497;SDS011;5296;51.060;13.750;2024-01-30T12:42:03;16.15;;;12.27;;
10497;SDS011;5296;51.060;13.750;2024-01-30T12:47:05;15.10;;;11.60;;
10497;SDS011;5296;51.060;13.750;2024-01-30T12:52:07;17.45;;;12.55;;
10497;SDS011;5296;51.060;13.750;2024-01-30T12:57:09;16.77;;;11.93;;
10497;SDS011;5296;51.060;13.750;2024-01-30T13:02:12;14.98;;;11.68;;
10497;SDS011;5296;51.060;13.750;2024-01-30T13:07:14;18.20;;;12.15;;
10497;SDS011;5296;51.060;13.750;2024-01-30T13:12:15;16.80;;;12.15;;
10497;SDS011;5296;51.060;13.750;2024-01-30T13:17:18;16.17;;;11.45;;
10497;SDS011;5296;51.060;13.750;2024-01-30T13:22:20;16.50;;;12.30;;
10497;SDS011;5296;51.060;13.750;2024-01-30T13:27:23;17.80;;;12.23;;
10497;SDS011;5296;51.060;13.750;2024-01-30T13:32:24;16.38;;;12.18;;
10497;SDS011;5296;51.060;13.750;2024-01-30T13:37:26;18.38;;;12.65;;
10497;SDS011;5296;51.060;13.750;2024-01-30T13:42:28;16.63;;;12.38;;
10497;SDS011;5296;51.060;13.750;2024-01-30T13:47:30;15.27;;;12.55;;
10497;SDS011;5296;51.060;13.750;2024-01-30T13:52:31;20.77;;;13.68;;
10497;SDS011;5296;51.060;13.750;2024-01-30T13:57:44;19.05;;;13.48;;
10497;SDS011;5296;51.060;13.750;2024-01-30T14:02:48;18.80;;;13.07;;
10497;SDS011;5296;51.060;13.750;2024-01-30T14:07:50;18.80;;;12.98;;
10497;SDS011;5296;51.060;13.750;2024-01-30T14:12:53;19.05;;;13.40;;
10497;SDS011;5296;51.060;13.750;2024-01-30T14:17:54;18.67;;;12.85;;
10497;SDS011;5296;51.060;13.750;2024-01-30T14:22:57;20.88;;;13.48;;
10497;SDS011;5296;51.060;13.750;2024-01-30T14:27:59;20.13;;;12.90;;
10497;SDS011;5296;51.060;13.750;2024-01-30T14:33:00;20.63;;;12.73;;
10497;SDS011;5296;51.060;13.750;2024-01-30T14:38:03;19.85;;;13.77;;
10497;SDS011;5296;51.060;13.750;2024-01-30T14:43:06;18.88;;;13.52;;
10497;SDS011;5296;51.060;13.750;2024-01-30T14:48:08;21.63;;;14.50;;
10497;SDS011;5296;51.060;13.750;2024-01-30T14:53:10;20.38;;;14.10;;
10497;SDS011;5296;51.060;13.750;2024-01-30T14:58:11;21.23;;;13.43;;
10497;SDS011;5296;51.060;13.750;2024-01-30T15:03:13;18.77;;;14.45;;
10497;SDS011;5296;51.060;13.750;2024-01-30T15:08:15;21.75;;;14.45;;
10497;SDS011;5296;51.060;13.750;2024-01-30T15:13:17;20.17;;;14.40;;
10497;SDS011;5296;51.060;13.750;2024-01-30T15:18:18;19.10;;;13.55;;
10497;SDS011;5296;51.060;13.750;2024-01-30T15:23:20;20.80;;;14.50;;
10497;SDS011;5296;51.060;13.750;2024-01-30T15:28:33;21.85;;;14.48;;
10497;SDS011;5296;51.060;13.750;2024-01-30T15:33:36;22.27;;;14.27;;
10497;SDS011;5296;51.060;13.750;2024-01-30T15:38:38;19.88;;;14.45;;
10497;SDS011;5296;51.060;13.750;2024-01-30T15:43:40;21.33;;;14.13;;
10497;SDS011;5296;51.060;13.750;2024-01-30T15:48:41;21.10;;;14.27;;
10497;SDS011;5296;51.060;13.750;2024-01-30T15:53:43;21.33;;;14.93;;
10497;SDS011;5296;51.060;13.750;2024-01-30T15:58:45;21.57;;;14.00;;
10497;SDS011;5296;51.060;13.750;2024-01-30T16:03:50;20.88;;;15.43;;
10497;SDS011;5296;51.060;13.750;2024-01-30T16:08:52;21.25;;;14.23;;
10497;SDS011;5296;51.060;13.750;2024-01-30T16:13:56;20.50;;;14.63;;
10497;SDS011;5296;51.060;13.750;2024-01-30T16:18:58;22.10;;;15.65;;
10497;SDS011;5296;51.060;13.750;2024-01-30T16:24:00;21.67;;;14.40;;
10497;SDS011;5296;51.060;13.750;2024-01-30T16:29:02;22.63;;;14.95;;
10497;SDS011;5296;51.060;13.750;2024-01-30T16:34:03;18.83;;;14.45;;
10497;SDS011;5296;51.060;13.750;2024-01-30T16:39:05;21.37;;;14.40;;
10497;SDS011;5296;51.060;13.750;2024-01-30T16:44:07;23.40;;;14.90;;
10497;SDS011;5296;51.060;13.750;2024-01-30T16:49:09;21.50;;;14.97;;
10497;SDS011;5296;51.060;13.750;2024-01-30T16:54:12;23.10;;;15.82;;
10497;SDS011;5296;51.060;13.750;2024-01-30T16:59:14;22.10;;;14.87;;
10497;SDS011;5296;51.060;13.750;2024-01-30T17:04:17;20.80;;;14.50;;
10497;SDS011;5296;51.060;13.750;2024-01-30T17:09:22;23.58;;;15.27;;
10497;SDS011;5296;51.060;13.750;2024-01-30T17:14:24;21.73;;;15.47;;
10497;SDS011;5296;51.060;13.750;2024-01-30T17:19:25;22.50;;;15.33;;
10497;SDS011;5296;51.060;13.750;2024-01-30T17:24:27;23.30;;;15.93;;
10497;SDS011;5296;51.060;13.750;2024-01-30T17:29:43;22.13;;;15.53;;
10497;SDS011;5296;51.060;13.750;2024-01-30T17:34:45;24.73;;;16.27;;
10497;SDS011;5296;51.060;13.750;2024-01-30T17:39:47;22.63;;;16.40;;
10497;SDS011;5296;51.060;13.750;2024-01-30T17:44:49;22.33;;;15.27;;
10497;SDS011;5296;51.060;13.750;2024-01-30T17:49:51;22.42;;;16.30;;
10497;SDS011;5296;51.060;13.750;2024-01-30T17:54:53;24.77;;;15.83;;
10497;SDS011;5296;51.060;13.750;2024-01-30T17:59:57;24.27;;;15.60;;
10497;SDS011;5296;51.060;13.750;2024-01-30T18:04:58;21.30;;;15.30;;
10497;SDS011;5296;51.060;13.750;2024-01-30T18:10:00;25.93;;;16.40;;
10497;SDS011;5296;51.060;13.750;2024-01-30T18:15:02;24.50;;;16.23;;
10497;SDS011;5296;51.060;13.750;2024-01-30T18:20:05;23.90;;;15.77;;
10497;SDS011;5296;51.060;13.750;2024-01-30T18:25:07;25.97;;;16.17;;
10497;SDS011;5296;51.060;13.750;2024-01-30T18:30:10;25.83;;;16.63;;
10497;SDS011;5296;51.060;13.750;2024-01-30T18:35:12;26.10;;;16.50;;
10497;SDS011;5296;51.060;13.750;2024-01-30T18:40:14;25.53;;;16.83;;
10497;SDS011;5296;51.060;13.750;2024-01-30T18:45:20;27.73;;;18.17;;
10497;SDS011;5296;51.060;13.750;2024-01-30T18:50:22;24.80;;;17.00;;
10497;SDS011;5296;51.060;13.750;2024-01-30T18:55:24;29.93;;;18.07;;
10497;SDS011;5296;51.060;13.750;2024-01-30T19:00:26;29.40;;;17.73;;
10497;SDS011;5296;51.060;13.750;2024-01-30T19:05:29;27.67;;;18.57;;
10497;SDS011;5296;51.060;13.750;2024-01-30T19:10:31;27.13;;;17.17;;
10497;SDS011;5296;51.060;13.750;2024-01-30T19:15:43;32.33;;;17.73;;
10497;SDS011;5296;51.060;13.750;2024-01-30T19:20:45;29.53;;;17.77;;
10497;SDS011;5296;51.060;13.750;2024-01-30T19:25:49;27.37;;;16.87;;
10497;SDS011;5296;51.060;13.750;2024-01-30T19:30:51;26.50;;;17.43;;
10497;SDS011;5296;51.060;13.750;2024-01-30T19:35:53;25.77;;;17.37;;
10497;SDS011;5296;51.060;13.750;2024-01-30T19:40:54;32.40;;;18.80;;
10497;SDS011;5296;51.060;13.750;2024-01-30T19:45:58;26.37;;;17.00;;
10497;SDS011;5296;51.060;13.750;2024-01-30T19:51:01;28.07;;;17.90;;
10497;SDS011;5296;51.060;13.750;2024-01-30T19:56:02;25.50;;;17.03;;
10497;SDS011;5296;51.060;13.750;2024-01-30T20:01:05;25.53;;;16.80;;
10497;SDS011;5296;51.060;13.750;2024-01-30T20:06:07;29.67;;;18.17;;
10497;SDS011;5296;51.060;13.750;2024-01-30T20:11:13;27.43;;;17.50;;
10497;SDS011;5296;51.060;13.750;2024-01-30T20:16:16;26.97;;;18.43;;
10497;SDS011;5296;51.060;13.750;2024-01-30T20:21:18;27.07;;;17.17;;
10497;SDS011;5296;51.060;13.750;2024-01-30T20:26:19;28.60;;;17.97;;
10497;SDS011;5296;51.060;13.750;2024-01-30T20:31:21;28.40;;;18.40;;
10497;SDS011;5296;51.060;13.750;2024-01-30T20:36:23;26.23;;;17.37;;
10497;SDS011;5296;51.060;13.750;2024-01-30T20:41:25;27.07;;;17.70;;
10497;SDS011;5296;51.060;13.750;2024-01-30T20:46:27;30.50;;;19.80;;
10497;SDS011;5296;51.060;13.750;2024-01-30T20:51:28;31.93;;;19.77;;
10497;SDS011;5296;51.060;13.750;2024-01-30T20:56:30;26.33;;;18.20;;
10497;SDS011;5296;51.060;13.750;2024-01-30T21:01:32;27.90;;;18.50;;
10497;SDS011;5296;51.060;13.750;2024-01-30T21:06:33;27.67;;;18.40;;
10497;SDS011;5296;51.060;13.750;2024-01-30T21:11:35;28.57;;;17.83;;
10497;SDS011;5296;51.060;13.750;2024-01-30T21:16:38;29.10;;;17.83;;
10497;SDS011;5296;51.060;13.750;2024-01-30T21:21:39;27.97;;;18.33;;
10497;SDS011;5296;51.060;13.750;2024-01-30T21:26:41;26.43;;;18.00;;
10497;SDS011;5296;51.060;13.750;2024-01-30T21:31:46;26.58;;;17.80;;
10497;SDS011;5296;51.060;13.750;2024-01-30T21:36:48;29.20;;;18.33;;
10497;SDS011;5296;51.060;13.750;2024-01-30T21:41:49;29.60;;;18.10;;
10497;SDS011;5296;51.060;13.750;2024-01-30T21:46:51;29.00;;;18.70;;
10497;SDS011;5296;51.060;13.750;2024-01-30T21:51:53;26.80;;;17.77;;
10497;SDS011;5296;51.060;13.750;2024-01-30T21:56:55;28.58;;;18.35;;
10497;SDS011;5296;51.060;13.750;2024-01-30T22:01:57;29.03;;;18.47;;
10497;SDS011;5296;51.060;13.750;2024-01-30T22:06:59;28.63;;;17.90;;
10497;SDS011;5296;51.060;13.750;2024-01-30T22:12:01;28.87;;;18.57;;
10497;SDS011;5296;51.060;13.750;2024-01-30T22:17:02;27.10;;;18.13;;
10497;SDS011;5296;51.060;13.750;2024-01-30T22:22:04;25.93;;;17.83;;
10497;SDS011;5296;51.060;13.750;2024-01-30T22:27:07;30.33;;;18.53;;
10497;SDS011;5296;51.060;13.750;2024-01-30T22:32:11;28.17;;;17.93;;
10497;SDS011;5296;51.060;13.750;2024-01-30T22:37:14;31.70;;;19.10;;
10497;SDS011;5296;51.060;13.750;2024-01-30T22:42:16;29.60;;;18.90;;
10497;SDS011;5296;51.060;13.750;2024-01-30T22:47:19;31.40;;;19.20;;
10497;SDS011;5296;51.060;13.750;2024-01-30T22:52:21;31.13;;;18.63;;
10497;SDS011;5296;51.060;13.750;2024-01-30T22:57:23;30.10;;;18.17;;
10497;SDS011;5296;51.060;13.750;2024-01-30T23:02:29;31.17;;;19.53;;
10497;SDS011;5296;51.060;13.750;2024-01-30T23:07:31;30.67;;;18.67;;
10497;SDS011;5296;51.060;13.750;2024-01-30T23:12:37;32.47;;;19.97;;
10497;SDS011;5296;51.060;13.750;2024-01-30T23:17:38;29.27;;;19.13;;
10497;SDS011;5296;51.060;13.750;2024-01-30T23:22:40;29.70;;;19.40;;
10497;SDS011;5296;51.060;13.750;2024-01-30T23:27:42;34.10;;;19.53;;
10497;SDS011;5296;51.060;13.750;2024-01-30T23:32:44;33.33;;;20.67;;
10497;SDS011;5296;51.060;13.750;2024-01-30T23:37:46;30.07;;;19.63;;
10497;SDS011;5296;51.060;13.750;2024-01-30T23:42:48;33.30;;;19.73;;
10497;SDS011;5296;51.060;13.750;2024-01-30T23:47:50;30.80;;;20.10;;
10497;SDS011;5296;51.060;13.750;2024-01-30T23:52:51;29.97;;;19.17;;
10497;SDS011;5296;51.060;13.750;2024-01-30T23:57:53;27.97;;;19.30;;
